createdAt,value
2023-04-27T00:01:15.674Z,74.85
2023-04-27T00:03:43.192Z,79.13
2023-04-27T00:06:10.186Z,76.47
2023-04-27T00:08:37.515Z,75.73
2023-04-27T00:11:04.714Z,78.30
2023-04-27T00:13:31.554Z,75.33
2023-04-27T00:16:00.950Z,72.87
2023-04-27T00:18:27.860Z,74.92
2023-04-27T00:20:54.543Z,76.20
2023-04-27T00:23:21.560Z,77.90
2023-04-27T00:25:48.326Z,79.74
2023-04-27T00:28:15.521Z,79.02
2023-04-27T00:30:42.348Z,83.77
2023-04-27T00:33:09.073Z,81.67
2023-04-27T00:35:36.010Z,76.87
2023-04-27T00:38:03.016Z,78.35
2023-04-27T00:40:29.921Z,79.30
2023-04-27T00:42:56.892Z,76.86
2023-04-27T00:45:25.331Z,79.09
2023-04-27T00:47:52.200Z,76.33
2023-04-27T00:50:27.542Z,76.53
2023-04-27T00:52:54.676Z,81.44
2023-04-27T00:55:21.426Z,79.82
2023-04-27T00:57:48.180Z,81.30
2023-04-27T01:00:15.618Z,79.27
2023-04-27T01:02:42.922Z,79.24
2023-04-27T01:05:10.018Z,79.48
2023-04-27T01:07:40.705Z,79.71
2023-04-27T01:10:08.313Z,81.02
2023-04-27T01:12:35.714Z,80.36
2023-04-27T01:15:06.355Z,86.65
2023-04-27T01:17:33.290Z,83.47
2023-04-27T01:20:00.948Z,82.95
2023-04-27T01:22:27.696Z,82.71
2023-04-27T01:24:54.784Z,85.93
2023-04-27T01:27:21.962Z,85.10
2023-04-27T01:29:48.842Z,86.79
2023-04-27T01:32:15.780Z,83.94
2023-04-27T01:34:42.752Z,83.08
2023-04-27T01:37:09.542Z,86.15
2023-04-27T01:39:36.252Z,83.77
2023-04-27T01:42:03.988Z,82.97
2023-04-27T01:44:30.838Z,84.64
2023-04-27T01:46:58.232Z,83.97
2023-04-27T01:49:25.050Z,88.04
2023-04-27T01:51:51.779Z,87.37
2023-04-27T01:54:18.597Z,90.21
2023-04-27T01:56:46.169Z,87.90
2023-04-27T01:59:13.219Z,89.56
2023-04-27T02:01:41.303Z,89.26
2023-04-27T02:04:08.228Z,88.77
2023-04-27T02:06:35.610Z,89.50
2023-04-27T02:09:02.540Z,91.87
2023-04-27T02:11:29.959Z,91.42
2023-04-27T02:13:56.917Z,90.27
2023-04-27T02:16:31.172Z,89.34
2023-04-27T02:18:59.503Z,90.35
2023-04-27T02:21:26.798Z,91.84
2023-04-27T02:23:53.555Z,92.27
2023-04-27T02:26:22.152Z,92.10
2023-04-27T02:28:50.467Z,91.59
2023-04-27T02:31:17.607Z,92.20
2023-04-27T02:33:46.071Z,93.05
2023-04-27T02:36:12.835Z,87.91
2023-04-27T02:38:39.606Z,88.46
2023-04-27T02:41:06.345Z,86.95
2023-04-27T02:43:34.156Z,90.00
2023-04-27T02:46:04.951Z,88.63
2023-04-27T02:48:31.908Z,91.17
2023-04-27T02:50:59.103Z,90.39
2023-04-27T02:53:25.971Z,89.69
2023-04-27T02:55:52.624Z,89.36
2023-04-27T02:58:20.105Z,95.52
2023-04-27T03:00:48.634Z,92.72
2023-04-27T03:03:16.137Z,94.29
2023-04-27T03:05:42.981Z,92.05
2023-04-27T03:08:09.785Z,88.87
2023-04-27T03:10:37.018Z,91.56
2023-04-27T03:13:03.754Z,92.13
2023-04-27T03:15:30.976Z,93.76
2023-04-27T03:17:57.801Z,92.29
2023-04-27T03:20:24.724Z,93.13
2023-04-27T03:22:53.594Z,92.36
2023-04-27T03:25:20.547Z,91.17
2023-04-27T03:27:47.336Z,92.61
2023-04-27T03:30:14.462Z,92.19
2023-04-27T03:32:41.730Z,92.80
2023-04-27T03:35:09.853Z,89.77
2023-04-27T03:37:36.786Z,90.66
2023-04-27T03:40:07.520Z,90.54
2023-04-27T03:42:34.533Z,91.93
2023-04-27T03:45:03.103Z,94.12
2023-04-27T03:47:29.937Z,93.97
2023-04-27T03:49:57.249Z,96.44
2023-04-27T03:52:24.988Z,92.83
2023-04-27T03:54:52.713Z,94.00
2023-04-27T03:57:19.603Z,93.48
2023-04-27T03:59:47.016Z,93.79
2023-04-27T04:02:14.561Z,90.79
2023-04-27T04:04:42.820Z,93.12
2023-04-27T04:07:09.839Z,95.11
2023-04-27T04:09:36.641Z,92.07
2023-04-27T04:12:03.840Z,95.41
2023-04-27T04:14:30.820Z,94.54
2023-04-27T04:16:57.821Z,91.71
2023-04-27T04:19:24.627Z,93.43
2023-04-27T04:21:51.523Z,94.81
2023-04-27T04:24:18.981Z,93.59
2023-04-27T04:26:45.952Z,93.35
2023-04-27T04:29:13.083Z,95.32
2023-04-27T04:31:40.157Z,95.24
2023-04-27T04:34:10.513Z,93.63
2023-04-27T04:36:38.205Z,95.29
2023-04-27T04:39:05.451Z,96.48
2023-04-27T04:41:33.263Z,94.76
2023-04-27T04:44:00.888Z,94.11
2023-04-27T04:46:28.832Z,91.55
2023-04-27T04:48:56.955Z,95.02
2023-04-27T04:51:24.049Z,93.92
2023-04-27T04:53:50.834Z,94.36
2023-04-27T04:56:17.618Z,94.56
2023-04-27T04:58:44.589Z,93.97
2023-04-27T05:01:12.026Z,93.22
2023-04-27T05:03:38.819Z,93.08
2023-04-27T05:06:05.997Z,97.07
2023-04-27T05:08:33.267Z,96.75
2023-04-27T05:11:00.791Z,94.44
2023-04-27T05:13:28.354Z,94.08
2023-04-27T05:15:55.437Z,98.26
2023-04-27T05:18:22.224Z,99.14
2023-04-27T05:20:49.483Z,96.83
2023-04-27T05:23:16.806Z,97.99
2023-04-27T05:25:43.944Z,99.88
2023-04-27T05:28:11.017Z,100.00
2023-04-27T05:30:38.174Z,99.87
2023-04-27T05:33:05.318Z,100.00
2023-04-27T05:35:33.631Z,100.00
2023-04-27T05:38:00.911Z,97.32
2023-04-27T05:40:27.934Z,98.19
2023-04-27T05:42:54.863Z,100.00
2023-04-27T05:45:22.013Z,100.00
2023-04-27T05:47:49.205Z,88.84
2023-04-27T05:50:16.611Z,74.97
2023-04-27T05:52:43.529Z,62.90
2023-04-27T05:55:10.977Z,55.65
2023-04-27T05:57:40.519Z,52.30
2023-04-27T06:00:11.404Z,48.15
2023-04-27T06:02:41.533Z,46.27
2023-04-27T06:05:09.100Z,47.47
2023-04-27T06:07:37.590Z,46.80
2023-04-27T06:10:05.437Z,48.17
2023-04-27T06:12:32.633Z,48.77
2023-04-27T06:15:00.199Z,47.95
2023-04-27T06:17:27.063Z,45.47
2023-04-27T06:19:53.977Z,45.03
2023-04-27T06:22:21.120Z,43.71
2023-04-27T06:24:48.286Z,42.49
2023-04-27T06:27:15.828Z,40.16
2023-04-27T06:29:50.041Z,39.15
2023-04-27T06:32:17.194Z,40.70
2023-04-27T06:34:44.212Z,43.60
2023-04-27T06:37:11.354Z,45.28
2023-04-27T06:39:46.965Z,46.05
2023-04-27T06:42:20.890Z,45.01
2023-04-27T06:44:50.587Z,43.89
2023-04-27T06:47:17.821Z,46.64
2023-04-27T06:49:44.942Z,45.07
2023-04-27T06:52:13.149Z,44.04
2023-04-27T06:54:40.425Z,44.32
2023-04-27T06:57:07.663Z,44.21
2023-04-27T06:59:34.964Z,43.55
2023-04-27T07:02:02.010Z,42.17
2023-04-27T07:04:30.620Z,45.08
2023-04-27T07:06:58.097Z,43.56
2023-04-27T07:09:27.732Z,46.97
2023-04-27T07:11:55.547Z,47.39
2023-04-27T07:14:22.905Z,47.83
2023-04-27T07:16:50.901Z,48.71
2023-04-27T07:19:17.889Z,50.23
2023-04-27T07:21:44.973Z,50.30
2023-04-27T07:24:11.825Z,49.28
2023-04-27T07:26:41.591Z,49.67
2023-04-27T07:29:25.714Z,53.91
2023-04-27T07:31:57.140Z,52.53
2023-04-27T07:34:24.234Z,50.95
2023-04-27T07:36:54.350Z,51.11
2023-04-27T07:39:21.767Z,52.58
2023-04-27T07:41:50.303Z,50.84
2023-04-27T07:44:21.941Z,49.04
2023-04-27T07:46:49.746Z,50.55
2023-04-27T07:49:16.957Z,48.75
2023-04-27T07:51:43.894Z,50.15
2023-04-27T07:54:10.882Z,49.78
2023-04-27T07:56:40.875Z,49.61
2023-04-27T07:59:08.092Z,50.43
2023-04-27T08:01:35.127Z,50.77
2023-04-27T08:04:02.315Z,51.43
2023-04-27T08:06:30.030Z,52.27
2023-04-27T08:09:00.937Z,53.07
2023-04-27T08:11:30.812Z,52.77
2023-04-27T08:13:57.805Z,51.29
2023-04-27T08:16:25.130Z,50.18
2023-04-27T08:18:52.376Z,50.67
2023-04-27T08:21:19.274Z,51.26
2023-04-27T08:23:46.188Z,50.07
2023-04-27T08:26:16.641Z,49.28
2023-04-27T08:28:43.518Z,50.70
2023-04-27T08:31:10.297Z,49.17
2023-04-27T08:33:37.330Z,48.85
2023-04-27T08:36:04.562Z,49.29
2023-04-27T08:38:31.448Z,49.68
2023-04-27T08:41:02.679Z,48.15
2023-04-27T08:43:38.101Z,48.99
2023-04-27T08:46:04.932Z,47.36
2023-04-27T08:48:31.752Z,47.31
2023-04-27T08:50:59.839Z,47.05
2023-04-27T08:53:26.755Z,46.44
2023-04-27T08:55:55.238Z,48.20
2023-04-27T08:58:22.034Z,47.97
2023-04-27T09:00:50.744Z,48.83
2023-04-27T09:03:23.110Z,48.65
2023-04-27T09:06:03.550Z,47.89
2023-04-27T09:08:49.952Z,47.16
2023-04-27T09:11:29.509Z,47.32
2023-04-27T09:13:58.514Z,47.74
2023-04-27T09:16:26.872Z,45.74
2023-04-27T09:18:54.018Z,46.55
2023-04-27T09:21:24.598Z,46.20
2023-04-27T09:23:51.890Z,47.51
2023-04-27T09:26:23.632Z,46.33
2023-04-27T09:28:52.599Z,45.88
2023-04-27T09:31:19.716Z,46.17
2023-04-27T09:33:47.558Z,47.27
2023-04-27T09:36:15.319Z,46.27
2023-04-27T09:38:42.187Z,47.19
2023-04-27T09:41:09.038Z,47.78
2023-04-27T09:43:37.206Z,46.88
2023-04-27T09:46:04.785Z,47.65
2023-04-27T09:48:32.049Z,46.87
2023-04-27T09:50:58.988Z,45.88
2023-04-27T09:53:39.096Z,46.70
2023-04-27T09:56:36.501Z,45.88
2023-04-27T09:59:38.703Z,45.82
2023-04-27T10:02:20.894Z,44.16
2023-04-27T10:05:36.104Z,44.23
2023-04-27T10:08:07.203Z,43.11
2023-04-27T10:10:50.213Z,44.31
2023-04-27T10:13:25.397Z,43.52
2023-04-27T10:15:52.932Z,44.12
2023-04-27T10:18:32.267Z,43.91
2023-04-27T10:21:11.094Z,41.83
2023-04-27T10:23:51.110Z,42.63
2023-04-27T10:26:28.179Z,42.75
2023-04-27T10:29:11.374Z,44.40
2023-04-27T10:31:44.835Z,45.83
2023-04-27T10:34:16.704Z,44.08
2023-04-27T10:36:44.949Z,43.66
2023-04-27T10:39:36.001Z,42.60
2023-04-27T10:42:11.563Z,43.77
2023-04-27T10:44:38.992Z,44.98
2023-04-27T10:47:20.267Z,44.47
2023-04-27T10:49:47.021Z,43.98
2023-04-27T10:52:13.798Z,42.12
2023-04-27T10:54:46.526Z,42.27
2023-04-27T10:57:13.586Z,41.81
2023-04-27T10:59:50.555Z,41.81
2023-04-27T11:02:17.783Z,41.79
2023-04-27T11:04:44.734Z,42.00
2023-04-27T11:07:12.377Z,41.45
2023-04-27T11:09:40.603Z,42.13
2023-04-27T11:12:08.304Z,41.21
2023-04-27T11:14:37.476Z,41.96
2023-04-27T11:17:06.308Z,41.99
2023-04-27T11:19:33.328Z,41.02
2023-04-27T11:22:06.804Z,41.13
2023-04-27T11:24:37.163Z,41.27
2023-04-27T11:27:04.145Z,40.27
2023-04-27T11:29:39.046Z,40.82
2023-04-27T11:32:06.167Z,41.61
2023-04-27T11:34:37.078Z,40.88
2023-04-27T11:39:41.692Z,40.68
2023-04-27T11:42:35.120Z,39.81
2023-04-27T11:45:06.279Z,38.47
2023-04-27T11:47:34.221Z,38.86
2023-04-27T11:50:06.560Z,40.05
2023-04-27T11:52:37.009Z,38.16
2023-04-27T11:55:05.012Z,39.27
2023-04-27T11:57:33.516Z,37.30
2023-04-27T12:00:02.340Z,38.05
2023-04-27T12:02:43.001Z,37.57
2023-04-27T12:05:12.946Z,39.30
2023-04-27T12:07:43.885Z,38.58
2023-04-27T12:10:11.036Z,38.26
2023-04-27T12:12:38.112Z,38.83
2023-04-27T12:15:05.314Z,38.65
2023-04-27T12:17:32.989Z,39.34
2023-04-27T12:19:59.794Z,37.89
2023-04-27T12:22:28.225Z,38.86
2023-04-27T12:24:56.154Z,39.58
2023-04-27T12:27:23.119Z,38.69
2023-04-27T12:29:54.422Z,38.47
2023-04-27T12:32:23.692Z,38.58
2023-04-27T12:34:50.990Z,39.58
2023-04-27T12:37:17.837Z,38.83
2023-04-27T12:39:44.899Z,39.01
2023-04-27T12:42:12.376Z,39.30
2023-04-27T12:44:43.863Z,39.07
2023-04-27T12:47:20.051Z,38.96
2023-04-27T12:49:55.586Z,39.59
2023-04-27T13:51:07.413Z,38.66
2023-04-27T13:56:38.190Z,38.97
2023-04-27T13:59:05.341Z,38.77
2023-04-27T14:01:36.588Z,38.49
2023-04-27T14:04:03.950Z,38.58
2023-04-27T14:06:32.219Z,38.79
2023-04-27T14:08:59.315Z,39.38
2023-04-27T14:11:26.483Z,39.18
2023-04-27T14:13:54.835Z,38.42
2023-04-27T14:16:22.121Z,38.71
2023-04-27T14:18:52.655Z,39.11
2023-04-27T14:21:20.512Z,40.34
2023-04-27T14:23:47.702Z,41.11
2023-04-27T14:26:15.259Z,39.95
2023-04-27T14:28:42.113Z,39.53
2023-04-27T14:31:12.509Z,39.88
2023-04-27T14:33:39.448Z,40.23
2023-04-27T14:36:06.474Z,40.99
2023-04-27T14:38:34.779Z,40.68
2023-04-27T14:41:03.695Z,40.28
2023-04-27T14:43:31.780Z,40.11
2023-04-27T14:46:05.091Z,40.07
2023-04-27T14:48:39.150Z,39.93
2023-04-27T14:51:06.701Z,39.47
2023-04-27T14:53:33.534Z,40.08
2023-04-27T14:56:00.437Z,40.43
2023-04-27T14:58:27.536Z,40.75
2023-04-27T15:00:54.265Z,41.41
2023-04-27T15:03:21.497Z,41.66
2023-04-27T15:05:48.372Z,41.12
2023-04-27T15:08:16.319Z,41.11
2023-04-27T15:10:43.194Z,41.54
2023-04-27T15:13:09.954Z,41.66
2023-04-27T15:15:37.173Z,42.24
2023-04-27T15:18:04.422Z,41.80
2023-04-27T15:20:31.438Z,41.41
2023-04-27T15:23:01.001Z,41.11
2023-04-27T15:25:28.112Z,41.27
2023-04-27T15:27:55.114Z,41.92
2023-04-27T15:30:21.943Z,42.46
2023-04-27T15:32:49.666Z,41.93
2023-04-27T15:35:16.519Z,42.29
2023-04-27T15:37:44.328Z,41.77
2023-04-27T15:40:11.761Z,41.82
2023-04-27T15:42:38.584Z,41.40
2023-04-27T15:45:08.013Z,41.67
2023-04-27T15:47:36.993Z,43.86
2023-04-27T15:50:04.665Z,44.16
2023-04-27T15:52:31.710Z,44.06
2023-04-27T15:54:58.707Z,43.26
2023-04-27T15:57:26.086Z,42.00
2023-04-27T15:59:52.716Z,43.50
2023-04-27T16:02:19.519Z,42.63
2023-04-27T16:04:46.327Z,43.20
2023-04-27T16:07:13.254Z,43.93
2023-04-27T16:09:40.037Z,43.56
2023-04-27T16:12:07.010Z,43.93
2023-04-27T16:14:34.078Z,43.74
2023-04-27T16:17:04.002Z,43.95
2023-04-27T16:19:30.999Z,43.22
2023-04-27T16:21:57.697Z,43.51
2023-04-27T16:24:25.920Z,43.44
2023-04-27T16:26:52.811Z,43.98
2023-04-27T16:29:19.770Z,43.99
2023-04-27T16:31:50.535Z,44.36
2023-04-27T16:34:17.368Z,43.93
2023-04-27T16:36:44.544Z,43.43
2023-04-27T16:39:11.706Z,44.00
2023-04-27T16:41:38.727Z,44.79
2023-04-27T16:44:05.503Z,44.20
2023-04-27T16:46:32.389Z,44.68
2023-04-27T16:48:59.201Z,45.44
2023-04-27T16:51:26.862Z,45.18
2023-04-27T16:53:54.201Z,44.41
2023-04-27T16:56:33.860Z,45.09
2023-04-27T16:59:01.343Z,44.89
2023-04-27T17:01:30.058Z,45.19
2023-04-27T17:03:57.860Z,45.43
2023-04-27T17:06:26.408Z,44.65
2023-04-27T17:08:57.017Z,44.71
2023-04-27T17:11:24.362Z,45.88
2023-04-27T17:13:51.161Z,45.92
2023-04-27T17:16:20.243Z,45.78
2023-04-27T17:18:47.323Z,46.04
2023-04-27T17:21:14.425Z,46.35
2023-04-27T17:23:41.590Z,46.49
2023-04-27T17:26:08.987Z,46.10
2023-04-27T17:28:36.220Z,46.90
2023-04-27T17:31:03.602Z,46.94
2023-04-27T17:33:30.525Z,47.52
2023-04-27T17:35:57.580Z,46.70
2023-04-27T17:38:24.444Z,46.94
2023-04-27T17:40:51.187Z,47.65
2023-04-27T17:43:21.089Z,47.10
2023-04-27T17:45:51.127Z,47.37
2023-04-27T17:48:18.348Z,47.33
2023-04-27T17:50:45.298Z,47.71
2023-04-27T17:53:13.193Z,47.38
2023-04-27T17:55:40.007Z,47.87
2023-04-27T17:58:07.203Z,47.21
2023-04-27T18:00:34.158Z,47.58
2023-04-27T18:03:01.221Z,47.22
2023-04-27T18:05:28.345Z,47.49
2023-04-27T18:08:01.335Z,47.00
2023-04-27T18:10:39.368Z,47.46
2023-04-27T18:13:06.389Z,47.75
2023-04-27T18:15:33.249Z,48.05
2023-04-27T18:18:00.237Z,46.63
2023-04-27T18:20:28.053Z,47.75
2023-04-27T18:22:55.058Z,47.81
2023-04-27T18:25:21.882Z,47.30
2023-04-27T18:27:55.253Z,48.17
2023-04-27T18:30:22.939Z,47.60
2023-04-27T18:32:50.058Z,47.51
2023-04-27T18:35:16.955Z,48.13
2023-04-27T18:37:48.398Z,48.35
2023-04-27T18:40:19.691Z,48.23
2023-04-27T18:42:50.104Z,48.14
2023-04-27T18:45:16.932Z,48.66
2023-04-27T18:47:43.790Z,48.68
2023-04-27T18:50:13.148Z,48.26
2023-04-27T18:52:39.937Z,48.69
2023-04-27T18:55:08.896Z,48.94
2023-04-27T18:57:36.135Z,48.77
2023-04-27T19:00:08.225Z,48.91
2023-04-27T19:02:35.592Z,49.49
2023-04-27T19:05:12.144Z,50.26
2023-04-27T19:07:40.775Z,49.61
2023-04-27T19:10:08.271Z,50.51
2023-04-27T19:12:35.222Z,50.21
2023-04-27T19:15:02.374Z,50.57
2023-04-27T19:17:29.312Z,50.08
2023-04-27T19:19:56.196Z,50.36
2023-04-27T19:22:24.142Z,50.76
2023-04-27T19:24:51.265Z,50.16
2023-04-27T19:27:18.104Z,51.02
2023-04-27T19:29:56.330Z,50.75
2023-04-27T19:32:28.857Z,50.70
2023-04-27T19:34:57.093Z,51.16
2023-04-27T19:37:25.048Z,51.17
2023-04-27T19:39:51.889Z,51.07
2023-04-27T19:42:18.768Z,51.43
2023-04-27T19:44:45.572Z,51.59
2023-04-27T19:47:12.453Z,51.91
2023-04-27T19:49:39.648Z,51.26
2023-04-27T19:52:07.535Z,52.09
2023-04-27T19:54:36.092Z,52.50
2023-04-27T19:57:04.225Z,52.08
2023-04-27T19:59:31.816Z,53.07
2023-04-27T20:01:58.752Z,52.03
2023-04-27T20:04:26.216Z,52.74
2023-04-27T20:06:53.248Z,53.80
2023-04-27T20:09:20.164Z,54.11
2023-04-27T20:11:47.043Z,53.09
2023-04-27T20:14:14.145Z,53.72
2023-04-27T20:16:41.873Z,53.01
2023-04-27T20:19:10.880Z,54.04
2023-04-27T20:21:37.900Z,53.15
2023-04-27T20:24:05.059Z,52.46
2023-04-27T20:26:31.809Z,53.17
2023-04-27T20:28:59.206Z,53.00
2023-04-27T20:31:26.995Z,52.24
2023-04-27T20:33:54.260Z,52.40
2023-04-27T20:36:23.054Z,51.73
2023-04-27T20:38:50.196Z,53.63
2023-04-27T20:41:17.467Z,54.85
2023-04-27T20:43:44.802Z,54.23
2023-04-27T20:46:11.886Z,54.91
2023-04-27T20:48:38.846Z,57.11
2023-04-27T20:51:13.160Z,58.31
2023-04-27T20:53:40.261Z,61.45
2023-04-27T20:56:09.638Z,63.03
2023-04-27T20:58:36.400Z,67.05
2023-04-27T21:01:03.366Z,67.88
2023-04-27T21:03:30.348Z,68.74
2023-04-27T21:05:57.114Z,70.16
2023-04-27T21:08:26.181Z,71.19
2023-04-27T21:10:53.082Z,66.68
2023-04-27T21:13:22.597Z,67.51
2023-04-27T21:15:49.635Z,66.58
2023-04-27T21:18:28.959Z,69.57
2023-04-27T21:21:05.527Z,67.97
2023-04-27T21:23:36.776Z,67.67
2023-04-27T21:26:15.018Z,73.10
2023-04-27T21:28:45.774Z,71.32
2023-04-27T21:31:12.876Z,71.00
2023-04-27T21:33:42.352Z,68.15
2023-04-27T21:36:10.700Z,70.83
2023-04-27T21:38:49.205Z,74.42
2023-04-27T21:41:18.119Z,69.96
2023-04-27T21:43:45.424Z,81.64
2023-04-27T21:46:15.013Z,78.27
2023-04-27T21:48:41.866Z,77.64
2023-04-27T21:51:08.663Z,79.83
2023-04-27T21:53:35.487Z,76.68
2023-04-27T21:56:03.000Z,77.17
2023-04-27T21:58:35.992Z,72.66
2023-04-27T22:01:13.425Z,77.00
2023-04-27T22:03:43.266Z,77.51
2023-04-27T22:06:10.725Z,74.18
2023-04-27T22:08:41.379Z,74.68
2023-04-27T22:11:08.180Z,73.47
2023-04-27T22:13:35.323Z,74.36
2023-04-27T22:16:02.541Z,73.31
2023-04-27T22:18:34.510Z,74.57
2023-04-27T22:21:01.831Z,76.12
2023-04-27T22:23:30.780Z,74.65
2023-04-27T22:25:57.569Z,79.83
2023-04-27T22:28:30.285Z,78.67
2023-04-27T22:30:57.221Z,81.62
2023-04-27T22:33:23.998Z,84.76
2023-04-27T22:35:53.945Z,79.56
2023-04-27T22:38:23.391Z,82.58
2023-04-27T22:40:50.529Z,83.74
2023-04-27T22:43:17.360Z,84.05
2023-04-27T22:45:44.087Z,82.90
2023-04-27T22:48:11.167Z,82.39
2023-04-27T22:50:37.963Z,84.38
2023-04-27T22:53:04.873Z,83.43
2023-04-27T22:55:31.762Z,78.38
2023-04-27T22:57:58.662Z,80.17
2023-04-27T23:00:26.249Z,82.98
2023-04-27T23:02:53.472Z,80.76
2023-04-27T23:05:20.346Z,76.55
2023-04-27T23:07:47.150Z,75.66
2023-04-27T23:10:15.234Z,82.21
2023-04-27T23:12:42.190Z,76.58
2023-04-27T23:15:09.535Z,72.37
2023-04-27T23:17:36.450Z,76.94
2023-04-27T23:20:20.477Z,75.73
2023-04-27T23:22:53.914Z,73.58
2023-04-27T23:25:20.909Z,73.07
2023-04-27T23:27:48.945Z,70.96
2023-04-27T23:30:17.326Z,70.69
2023-04-27T23:32:44.057Z,69.05
2023-04-27T23:35:10.924Z,71.63
2023-04-27T23:37:38.180Z,74.18
2023-04-27T23:40:06.359Z,77.03
2023-04-27T23:42:33.439Z,72.35
2023-04-27T23:45:00.350Z,80.32
2023-04-27T23:47:27.207Z,94.15
2023-04-27T23:49:53.980Z,99.65
2023-04-27T23:52:21.123Z,100.00
2023-04-27T23:54:47.897Z,100.00
2023-04-27T23:57:15.814Z,100.00
2023-04-27T23:59:43.314Z,100.00
